• Join FlightAware (Why Join?)
  • Login
  • US Flag 
 
02:39PM EST


 

Airport Tracker/Info


-or-


 

Live Flight TrackerFlight Track Log ✈ UAL625 ✈ 26-Apr-2014 ✈ KORD - KSFO

Flight Track Log - Related Links

Times and Time Zones

All times are in EDT time to prevent confusion due to time zone crossing. See the UAL625 flight status page for this flight to view local times or setup timezone preferences in your user account.

Time Position Orientation Groundspeed Altitude Reporting Facility
EDT Latitude Longitude Course Direction KTS MPH feet Rate Location/Type
07:23PM 42.0167 -87.8833 270° West 194 223 2,600  Level Chicago TRACON
07:24PM 42.0667 -87.9500 315° West 248 285 5,000 1,500 Climbing Chicago TRACON
07:26PM 42.0194 -88.4682 276° West  Level FlightAware Approximate
07:26PM 42.1389 -88.0336 319° Northwest 260 299 6,300  Level Chicago Center
07:27PM 42.0304 -88.6112 276° West  Level FlightAware Approximate
07:27PM 42.1561 -88.1253 284° West 252 290 9,900  Level Chicago Center
07:28PM 42.0333 -88.7547 270° West  Level FlightAware Approximate
07:28PM 42.1433 -88.2222 260° West 261 300 12,400  Level Chicago Center
07:29PM 42.1253 -88.3372 258° West 312 359 13,800 1,860 Climbing Chicago Center
07:30PM 42.1031 -88.4722 258° West 346 398 16,300 2,220 Climbing Chicago Center
07:31PM 42.0850 -88.5853 258° West 348 400 18,500 2,340 Climbing Chicago Center
07:32PM 42.0581 -88.7436 257° West 359 413 21,100 2,220 Climbing Chicago Center
07:33PM 42.0414 -88.8825 261° West 372 428 23,100 1,740 Climbing Chicago Center
07:34PM 42.0347 -89.0242 266° West 379 436 24,800 1,560 Climbing Chicago Center
07:35PM 42.0256 -89.1703 265° West 388 447 26,300 1,440 Climbing Chicago Center
07:36PM 42.0150 -89.3214 265° West 404 465 27,800 1,440 Climbing Chicago Center
07:37PM 42.0072 -89.4728 266° West 406 467 29,300 1,380 Climbing Chicago Center
07:38PM 41.9967 -89.6256 265° West 408 470 30,700 1,800 Climbing Chicago Center
07:39PM 41.9858 -89.8019 265° West 400 460 33,100 1,560 Climbing Chicago Center
07:40PM 41.9778 -89.9294 265° West 395 455 34,000 420 Climbing Chicago Center
07:41PM 41.9683 -90.0722 265° West 388 447 34,000  Level Chicago Center
07:42PM 41.9569 -90.2447 265° West 389 448 34,000  Level Chicago Center
07:43PM 41.9469 -90.3911 265° West 391 450 34,000  Level Chicago Center
07:44PM 41.9367 -90.5347 265° West 392 451 34,000  Level Chicago Center
07:45PM 41.9236 -90.6844 263° West 401 461 34,000  Level Chicago Center
07:46PM 41.9125 -90.8286 264° West 399 459 34,000  Level Chicago Center
07:47PM 41.9019 -90.9719 264° West 393 452 34,000  Level Chicago Center
07:48PM 41.8914 -91.1150 264° West 390 449 34,000  Level Chicago Center
07:49PM 41.8808 -91.2592 264° West 387 445 34,000  Level Chicago Center
07:50PM 41.8658 -91.4339 263° West 390 449 34,000  Level Chicago Center
07:51PM 41.8542 -91.5775 264° West 390 449 34,000  Level Chicago Center
07:52PM 41.8425 -91.7233 264° West 392 451 34,000  Level Chicago Center
07:53PM 41.8322 -91.8692 265° West 393 452 34,000  Level Chicago Center
07:54PM 41.8256 -92.0156 267° West 393 452 34,000  Level Chicago Center
07:55PM 41.8164 -92.1625 265° West 395 455 34,000  Level Chicago Center
07:56PM 41.8064 -92.3086 265° West 395 455 34,000  Level Chicago Center
07:57PM 41.7958 -92.4858 265° West 396 456 34,000  Level Chicago Center
07:58PM 41.7864 -92.6333 265° West 397 457 34,000  Level Chicago Center
07:59PM 41.7825 -92.7219 267° West 396 456 34,000  Level Minneapolis Center
08:00PM 41.7739 -92.8533 265° West 396 456 34,000  Level Minneapolis Center
08:01PM 41.7631 -92.9986 264° West 396 456 34,000  Level Minneapolis Center
08:02PM 41.7517 -93.1744 265° West 396 456 34,000  Level Minneapolis Center
08:03PM 41.7417 -93.3186 265° West 396 456 34,000  Level Minneapolis Center
08:04PM 41.7308 -93.4650 264° West 396 456 34,000  Level Minneapolis Center
08:05PM 41.7192 -93.6094 264° West 396 456 34,000  Level Minneapolis Center
08:06PM 41.7064 -93.7567 263° West 397 457 34,000  Level Minneapolis Center
08:07PM 41.6944 -93.9047 264° West 397 457 34,000  Level Minneapolis Center
08:08PM 41.6825 -94.0536 264° West 401 461 34,000  Level Minneapolis Center
08:09PM 41.6669 -94.2269 263° West 401 461 34,000  Level Minneapolis Center
08:10PM 41.6561 -94.3508 263° West 403 464 34,000  Level Minneapolis Center
08:11PM 41.6411 -94.5311 264° West 405 466 34,000  Level Minneapolis Center
08:12PM 41.6278 -94.6811 263° West 405 466 34,000  Level Minneapolis Center
08:13PM 41.6128 -94.8331 263° West 410 472 34,000  Level Minneapolis Center
08:14PM 41.5986 -94.9853 263° West 410 472 34,000  Level Minneapolis Center
08:15PM 41.5847 -95.1375 263° West 411 473 34,000  Level Minneapolis Center
08:16PM 41.5700 -95.2883 263° West 412 474 34,000  Level Minneapolis Center
08:17PM 41.5556 -95.4411 263° West 412 474 34,000  Level Minneapolis Center
08:18PM 41.5397 -95.5933 262° West 414 476 34,000  Level Minneapolis Center
08:19PM 41.5242 -95.7597 263° West 414 476 34,000  Level Minneapolis Center
08:20PM 41.5086 -95.9106 262° West 414 476 34,000  Level Minneapolis Center
08:21PM 41.4997 -96.0636 266° West 414 476 34,000  Level Minneapolis Center
08:22PM 41.5022 -96.2156 271° West 412 474 34,000  Level Minneapolis Center
08:23PM 41.5019 -96.3733 270° West 412 474 34,000  Level Minneapolis Center
08:24PM 41.5031 -96.5247 271° West 411 473 34,000  Level Minneapolis Center
08:25PM 41.5033 -96.6739 270° West 407 468 34,000  Level Minneapolis Center
08:27PM 41.5042 -96.8233 270° West 407 468 34,000  Level Minneapolis Center
08:28PM 41.5053 -96.9739 271° West 407 468 34,000  Level Minneapolis Center
08:29PM 41.5042 -97.1228 269° West 406 467 34,000  Level Minneapolis Center
08:30PM 41.5042 -97.2725 270° West 406 467 34,000  Level Minneapolis Center
08:31PM 41.5044 -97.4514 270° West 405 466 34,000  Level Minneapolis Center
08:32PM 41.5036 -97.6019 270° West 405 466 34,000  Level Minneapolis Center
08:33PM 41.5025 -97.7519 269° West 405 466 34,000  Level Minneapolis Center
08:34PM 41.5006 -97.9017 269° West 405 466 34,000  Level Minneapolis Center
08:35PM 41.4992 -98.0522 269° West 405 466 34,000  Level Minneapolis Center
08:36PM 41.4917 -98.1978 266° West 405 466 34,000  Level Minneapolis Center
08:37PM 41.4842 -98.3483 266° West 405 466 34,000  Level Minneapolis Center
08:38PM 41.4767 -98.5044 266° West 406 467 34,000  Level Minneapolis Center
08:39PM 41.4694 -98.6578 266° West 410 472 34,000  Level Minneapolis Center
08:40PM 41.4611 -98.8094 266° West 411 473 34,000  Level Minneapolis Center
08:41PM 41.4511 -98.9908 266° West 410 472 34,000 300 Level Minneapolis Center
08:42PM 41.4414 -99.1436 265° West 411 473 34,700 1,020 Climbing Minneapolis Center
08:43PM 41.4364 -99.2808 267° West 410 472 36,100 1,080 Climbing Minneapolis Center
08:44PM 41.4300 -99.3978 266° West 403 464 36,800 900 Climbing Denver Center
08:45PM 41.4217 -99.5464 266° West 403 464 37,800 540 Climbing Denver Center
08:46PM 41.4117 -99.7219 266° West 402 463 38,000 60 Climbing Denver Center
08:47PM 41.4017 -99.8642 265° West 401 461 38,000  Level Denver Center
08:48PM 41.3939 -100.0064 266° West 401 461 38,000  Level Denver Center
08:49PM 41.3836 -100.1742 265° West 405 466 38,000  Level Denver Center
08:50PM 41.3739 -100.3172 265° West 405 466 38,000  Level Denver Center
08:51PM 41.3631 -100.4836 265° West 405 466 38,000  Level Denver Center
08:52PM 41.3533 -100.6244 265° West 405 466 38,000  Level Denver Center
08:53PM 41.3433 -100.7661 265° West 405 466 38,000  Level Denver Center
08:54PM 41.3322 -100.9292 265° West 402 463 38,000  Level Denver Center
08:55PM 41.3231 -101.0692 265° West 399 459 38,000  Level Denver Center
08:56PM 41.3106 -101.2306 264° West 398 458 38,000  Level Denver Center
08:57PM 41.3011 -101.3689 265° West 397 457 38,000  Level Denver Center
08:58PM 41.2900 -101.5075 264° West 396 456 38,000  Level Denver Center
08:59PM 41.2781 -101.6694 264° West 396 456 38,000  Level Denver Center
09:00PM 41.2678 -101.8094 264° West 397 457 38,000  Level Denver Center
09:01PM 41.2544 -101.9744 264° West 399 459 38,000  Level Denver Center
09:02PM 41.2433 -102.1150 264° West 399 459 38,000  Level Denver Center
09:03PM 41.2319 -102.2567 264° West 401 461 38,000  Level Denver Center
09:04PM 41.2122 -102.4433 262° West 402 463 38,000  Level Denver Center
09:05PM 41.1942 -102.5831 260° West 402 463 38,000  Level Denver Center
09:06PM 41.1728 -102.7478 260° West 403 464 38,000  Level Denver Center
09:07PM 41.1536 -102.8908 260° West 408 470 38,000  Level Denver Center
09:08PM 41.1308 -103.0556 260° West 413 475 38,000  Level Denver Center
09:09PM 41.1117 -103.2019 260° West 418 481 38,000  Level Denver Center
09:10PM 41.0883 -103.3731 260° West 420 483 38,000  Level Denver Center
09:11PM 41.0681 -103.5181 260° West 420 483 38,000  Level Denver Center
09:12PM 41.0483 -103.6619 260° West 419 482 38,000  Level Denver Center
09:13PM 41.0250 -103.8258 259° West 406 467 38,000  Level Denver Center
09:15PM 41.0047 -103.9650 259° West 404 465 38,000  Level Denver Center
09:16PM 40.9983 -104.1072 267° West 405 466 38,000  Level Denver Center
09:17PM 40.9986 -104.2764 270° West 406 467 38,000  Level Denver Center
09:18PM 40.9975 -104.4119 269° West 407 468 38,000  Level Denver Center
09:19PM 40.9928 -104.5614 268° West 407 468 38,000  Level Denver Center
09:20PM 40.9694 -104.7369 260° West 408 470 38,000  Level Denver Center
09:21PM 40.9492 -104.8881 260° West 411 473 38,000  Level Denver Center
09:22PM 40.9256 -105.0364 258° West 412 474 38,000  Level Denver Center
09:23PM 40.8975 -105.1872 256° West 419 482 38,000  Level Denver Center
09:24PM 40.8692 -105.3356 256° West 419 482 38,000  Level Denver Center
09:25PM 40.8422 -105.4853 257° West 420 483 38,000  Level Denver Center
09:26PM 40.8133 -105.6375 256° West 425 489 38,000  Level Denver Center
09:27PM 40.7856 -105.7875 256° West 425 489 38,000  Level Denver Center
09:28PM 40.7567 -105.9406 256° West 430 495 38,000  Level Denver Center
09:29PM 40.7214 -106.1244 256° West 430 495 38,000  Level Denver Center
09:30PM 40.6964 -106.2636 257° West 431 496 38,000  Level Denver Center
09:31PM 40.6608 -106.4347 255° West 431 496 38,000  Level Denver Center
09:32PM 40.6350 -106.5697 256° West 432 497 38,000  Level Denver Center
09:33PM 40.5986 -106.7561 256° West 435 501 38,000  Level Denver Center
09:34PM 40.5683 -106.9117 256° West 437 503 38,000  Level Denver Center
09:35PM 40.5375 -107.0675 255° West 438 504 38,000  Level Denver Center
09:36PM 40.5047 -107.2297 255° West 438 504 38,000  Level Denver Center
09:37PM 40.4744 -107.3803 255° West 442 509 38,000  Level Denver Center
09:38PM 40.4378 -107.5536 255° West 442 509 38,000  Level Denver Center
09:39PM 40.4069 -107.7025 255° West 442 509 38,000  Level Denver Center
09:40PM 40.3778 -107.8497 255° West 441 507 38,000  Level Denver Center
09:41PM 40.3414 -108.0225 255° West 442 509 38,000  Level Denver Center
09:42PM 40.3103 -108.1694 255° West 440 506 38,000  Level Denver Center
09:43PM 40.2742 -108.3406 255° West 440 506 38,000  Level Denver Center
09:44PM 40.2428 -108.4869 254° West 439 505 38,000  Level Denver Center
09:45PM 40.2114 -108.6333 254° West 439 505 38,000  Level Denver Center
09:46PM 40.1753 -108.8069 255° West 440 506 38,000  Level Denver Center
09:47PM 40.1467 -108.9553 256° West 441 507 38,000  Level Denver Center
09:48PM 40.1119 -109.1281 255° West 443 510 38,000  Level Denver Center
09:49PM 40.0822 -109.2769 255° West 443 510 38,000  Level Denver Center
09:50PM 40.0472 -109.4483 255° West 442 509 38,000  Level Denver Center
09:51PM 40.0219 -109.5728 255° West 443 510 38,000  Level Denver Center
09:52PM 39.9861 -109.7461 255° West 444 511 38,000  Level Denver Center
09:54PM 39.9392 -109.9692 255° West 444 511 38,000  Level Denver Center
09:55PM 39.9039 -110.1419 255° West 444 511 38,000  Level Denver Center
09:56PM 39.8719 -110.2897 254° West 445 512 38,000  Level Denver Center
09:57PM 39.8414 -110.4392 255° West 445 512 38,000  Level Denver Center
09:58PM 39.8036 -110.6117 254° West 444 511 38,000  Level Denver Center
09:59PM 39.7667 -110.7828 254° West 443 510 38,000  Level Salt Lake Center
10:00PM 39.7350 -110.9292 254° West 442 509 38,000  Level Salt Lake Center
10:01PM 39.7042 -111.0736 255° West 440 506 38,000  Level Salt Lake Center
10:02PM 39.6672 -111.2444 254° West 440 506 38,000  Level Salt Lake Center
10:03PM 39.6358 -111.3839 254° West 439 505 38,000  Level Salt Lake Center
10:04PM 39.6019 -111.5350 254° West 438 504 38,000  Level Salt Lake Center
10:05PM 39.5686 -111.6875 254° West 438 504 38,000  Level Salt Lake Center
10:06PM 39.5336 -111.8372 253° West 437 503 38,000  Level Salt Lake Center
10:07PM 39.4997 -111.9869 254° West 436 502 38,000  Level Salt Lake Center
10:08PM 39.4578 -112.1681 253° West 437 503 38,000  Level Salt Lake Center
10:09PM 39.4225 -112.3192 253° West 437 503 38,000  Level Salt Lake Center
10:10PM 39.3883 -112.4708 254° West 438 504 38,000  Level Salt Lake Center
10:11PM 39.3533 -112.6203 253° West 438 504 38,000  Level Salt Lake Center
10:12PM 39.3167 -112.7714 253° West 434 499 38,000  Level Salt Lake Center
10:13PM 39.2814 -112.9192 253° West 434 499 38,000  Level Salt Lake Center
10:14PM 39.2458 -113.0669 253° West 434 499 38,000  Level Salt Lake Center
10:15PM 39.2103 -113.2147 253° West 434 499 38,000  Level Salt Lake Center
10:16PM 39.1753 -113.3644 253° West 434 499 38,000  Level Salt Lake Center
10:17PM 39.1381 -113.5136 252° West 435 501 38,000  Level Salt Lake Center
10:18PM 39.0967 -113.6881 253° West 433 498 38,000  Level Salt Lake Center
10:19PM 39.0603 -113.8333 252° West 431 496 38,000  Level Salt Lake Center
10:20PM 39.0244 -113.9742 252° West 425 489 38,000  Level Salt Lake Center
10:21PM 38.9889 -114.1172 252° West 424 488 38,000  Level Salt Lake Center
10:22PM 38.9536 -114.2578 252° West 421 484 38,000  Level Salt Lake Center
10:23PM 38.9178 -114.3992 252° West 420 483 38,000  Level Salt Lake Center
10:24PM 38.8822 -114.5422 252° West 420 483 38,000  Level Salt Lake Center
10:25PM 38.8447 -114.6864 252° West 425 489 38,000  Level Salt Lake Center
10:26PM 38.8094 -114.8253 252° West 417 480 38,000  Level Salt Lake Center
10:27PM 38.7639 -114.9994 252° West 425 489 38,000  Level Salt Lake Center
10:28PM 38.7264 -115.1419 251° West 426 490 38,000  Level Salt Lake Center
10:30PM 38.6892 -115.2825 251° West 422 486 38,000  Level Salt Lake Center
10:31PM 38.6536 -115.4131 251° West 422 486 38,000  Level Salt Lake Center
10:32PM 38.6186 -115.5506 252° West 414 476 38,000  Level Salt Lake Center
10:33PM 38.5833 -115.6881 252° West 407 468 38,000  Level Salt Lake Center
10:34PM 38.5386 -115.8547 251° West 409 471 38,000  Level Salt Lake Center
10:35PM 38.5019 -115.9917 251° West 409 471 38,000  Level Salt Lake Center
10:36PM 38.4650 -116.1286 251° West 409 471 38,000  Level Salt Lake Center
10:36PM 38.4414 -116.2119 250° West 411 473 38,000  Level Oakland Center
10:37PM 38.4036 -116.3469 250° West 410 472 38,000  Level Oakland Center
10:38PM 38.3672 -116.4825 251° West 408 470 38,000  Level Oakland Center
10:39PM 38.3300 -116.6158 250° West 401 461 38,000  Level Oakland Center
10:40PM 38.2936 -116.7500 251° West 401 461 38,000  Level Oakland Center
10:41PM 38.2556 -116.8836 250° West 401 461 38,000  Level Oakland Center
10:42PM 38.2186 -117.0178 251° West 401 461 38,000  Level Oakland Center
10:43PM 38.1917 -117.1564 256° West 398 458 38,000  Level Oakland Center
10:44PM 38.1736 -117.2908 260° West 392 451 38,000  Level Oakland Center
10:45PM 38.1531 -117.4419 260° West 394 453 38,000  Level Oakland Center
10:46PM 38.1358 -117.5767 261° West 391 450 38,000  Level Oakland Center
10:47PM 38.1167 -117.7144 260° West 393 452 38,000  Level Oakland Center
10:48PM 38.0975 -117.8556 260° West 403 464 38,000  Level Oakland Center
10:49PM 38.0775 -117.9969 260° West 404 465 38,000  Level Oakland Center
10:50PM 38.0594 -118.1367 261° West 404 465 38,000  Level Oakland Center
10:51PM 38.0389 -118.2767 259° West 403 464 38,000  Level Oakland Center
10:52PM 38.0181 -118.4133 259° West 399 459 38,000  Level Oakland Center
10:54PM 37.9989 -118.5503 260° West 395 455 38,000  Level Oakland Center
10:55PM 37.9792 -118.6836 259° West 389 448 38,000  Level Oakland Center
10:56PM 37.9606 -118.8181 260° West 386 444 38,000 -240 Level Oakland Center
10:57PM 37.9381 -118.9800 260° West 389 448 37,600 -660 Descending Oakland Center
10:58PM 37.9186 -119.1117 259° West 382 440 36,700 -840 Descending Oakland Center
10:59PM 37.9019 -119.2222 259° West 378 435 36,000 -840 Descending Oakland Center
11:00PM 37.8825 -119.3497 259° West 370 426 35,100 -1,200 Descending Oakland Center
11:01PM 37.8617 -119.4800 259° West 376 433 33,600 -1,320 Descending Oakland Center
11:02PM 37.8381 -119.6353 259° West 377 434 32,500 -1,140 Descending Oakland Center
11:03PM 37.8178 -119.7611 259° West 370 426 31,300 -1,200 Descending Oakland Center
11:04PM 37.7989 -119.8850 259° West 363 418 30,100 -1,200 Descending Oakland Center
11:05PM 37.7794 -120.0069 259° West 357 411 29,000 -1,080 Descending Oakland Center
11:06PM 37.7600 -120.1275 259° West 354 407 28,000 -540 Descending Oakland Center
11:07PM 37.7425 -120.2458 259° West 348 400 28,000 -420 Level Oakland Center
11:08PM 37.7236 -120.3653 259° West 348 400 27,200 -1,140 Descending Oakland Center
11:09PM 37.7047 -120.4828 259° West 345 397 25,800 -1,380 Descending Oakland Center
11:10PM 37.6867 -120.5975 259° West 336 387 24,400 -1,440 Descending Oakland Center
11:11PM 37.6672 -120.7111 258° West 332 382 23,000 -1,440 Descending Oakland Center
11:12PM 37.6486 -120.8231 258° West 330 380 21,600 -1,380 Descending Oakland Center
11:12PM 37.6333 -120.8833 252° West 330 380 20,900 -1,080 Descending Northern Cal TRACON
11:13PM 37.6167 -121.0000 260° West 326 375 20,000 -720 Descending Northern Cal TRACON
11:14PM 37.6167 -121.1167 270° West 332 382 19,500 -1,200 Descending Northern Cal TRACON
11:15PM 37.6000 -121.2167 258° West 329 379 17,700 -2,040 Descending Northern Cal TRACON
11:16PM 37.5833 -121.3167 258° West 326 375 15,600 -2,100 Descending Northern Cal TRACON
11:17PM 37.5667 -121.4333 260° West 311 358 13,600 -2,040 Descending Northern Cal TRACON
11:18PM 37.5667 -121.5333 270° West 271 312 11,600 -1,260 Descending Northern Cal TRACON
11:19PM 37.5500 -121.6167 256° West 272 313 11,100 -420 Descending Northern Cal TRACON
11:20PM 37.5833 -121.7000 297° West 266 306 10,800 -720 Descending Northern Cal TRACON
11:21PM 37.5667 -121.7833 256° West 269 310 9,600 -840 Descending Northern Cal TRACON
11:22PM 37.5000 -121.7833 180° South 265 305 9,100 -480 Descending Northern Cal TRACON
11:23PM 37.4667 -121.8500 238° Southwest 221 254 8,700 -840 Descending Northern Cal TRACON
11:24PM 37.4667 -121.9333 270° West 222 255 7,600 -1,020 Descending Northern Cal TRACON
11:25PM 37.4833 -121.9833 293° West 192 221 6,800 -1,080 Descending Northern Cal TRACON
11:26PM 37.5000 -122.0500 288° West 180 207 5,500 -1,200 Descending Northern Cal TRACON
11:27PM 37.5167 -122.1000 293° West 166 191 4,400 -1,080 Descending Northern Cal TRACON
11:28PM 37.5350 -122.1347 304° West 171 197 3,700 -840 Descending Oakland Center
11:29PM 37.5511 -122.1817 293° West 159 183 3,000 -780 Descending Oakland Center
11:30PM 37.5686 -122.2275 296° West 151 174 2,200 -780 Descending Oakland Center
11:31PM 37.5861 -122.2742 295° West 151 174 1,500 -840 Descending Oakland Center
11:32PM 37.6008 -122.3203 292° West 131 151 600 -720 Descending Oakland Center
11:33PM 37.6103 -122.3514 291° West 123 142 100 -540 Descending Oakland Center